createdAt,value
2019-01-18T00:00:14.959Z,3.60
2019-01-18T00:02:43.362Z,3.80
2019-01-18T00:05:12.035Z,3.90
2019-01-18T00:07:41.195Z,4.10
2019-01-18T00:10:10.219Z,4.30
2019-01-18T00:12:38.883Z,4.30
2019-01-18T00:15:09.707Z,4.20
2019-01-18T00:17:38.282Z,4.30
2019-01-18T00:20:12.259Z,4.10
2019-01-18T00:22:40.780Z,4.20
2019-01-18T00:25:09.924Z,4.00
2019-01-18T00:27:38.687Z,4.10
2019-01-18T00:30:16.487Z,4.20
2019-01-18T00:32:45.161Z,4.20
2019-01-18T00:35:13.543Z,4.10
2019-01-18T00:37:42.156Z,3.90
2019-01-18T00:40:13.919Z,3.80
2019-01-18T00:42:42.429Z,3.80
2019-01-18T00:45:13.651Z,3.90
2019-01-18T00:47:42.283Z,3.80
2019-01-18T00:50:16.033Z,3.60
2019-01-18T00:52:44.752Z,3.70
2019-01-18T00:55:13.252Z,3.80
2019-01-18T00:57:41.704Z,3.80
2019-01-18T01:00:19.227Z,3.90
2019-01-18T01:02:47.884Z,3.80
2019-01-18T01:05:16.704Z,4.00
2019-01-18T01:07:45.151Z,3.80
2019-01-18T01:10:13.759Z,3.70
2019-01-18T01:12:42.318Z,3.50
2019-01-18T01:15:14.139Z,3.60
2019-01-18T01:17:42.867Z,3.50
2019-01-18T01:20:13.295Z,3.30
2019-01-18T01:22:42.190Z,3.20
2019-01-18T01:25:11.304Z,3.70
2019-01-18T01:27:40.564Z,3.60
2019-01-18T01:30:23.615Z,3.40
2019-01-18T01:32:53.251Z,3.40
2019-01-18T01:35:21.870Z,3.50
2019-01-18T01:37:50.287Z,3.40
2019-01-18T01:40:21.207Z,3.40
2019-01-18T01:42:50.153Z,3.40
2019-01-18T01:45:18.738Z,3.70
2019-01-18T01:47:47.190Z,3.70
2019-01-18T01:50:23.417Z,3.90
2019-01-18T01:52:52.119Z,3.90
2019-01-18T01:55:20.506Z,3.80
2019-01-18T01:57:49.467Z,4.00
2019-01-18T02:00:22.908Z,4.10
2019-01-18T02:02:51.286Z,4.20
2019-01-18T02:05:19.873Z,4.10
2019-01-18T02:07:48.260Z,4.10
2019-01-18T02:10:18.278Z,4.00
2019-01-18T02:12:46.704Z,4.10
2019-01-18T02:15:24.447Z,4.10
2019-01-18T02:17:53.158Z,4.00
2019-01-18T02:20:22.996Z,4.10
2019-01-18T02:22:52.016Z,4.00
2019-01-18T02:25:20.715Z,3.90
2019-01-18T02:27:49.744Z,3.90
2019-01-18T02:30:24.039Z,3.90
2019-01-18T02:32:52.419Z,3.90
2019-01-18T02:35:21.724Z,3.90
2019-01-18T02:37:50.269Z,3.90
2019-01-18T02:40:18.659Z,3.90
2019-01-18T02:42:47.207Z,3.90
2019-01-18T02:45:20.708Z,3.90
2019-01-18T02:47:49.093Z,3.80
2019-01-18T02:50:17.548Z,4.00
2019-01-18T02:52:45.976Z,3.90
2019-01-18T02:55:14.357Z,3.80
2019-01-18T02:57:42.735Z,3.70
2019-01-18T03:00:20.256Z,3.80
2019-01-18T03:02:48.811Z,3.80
2019-01-18T03:05:19.886Z,3.90
2019-01-18T03:07:48.306Z,3.80
2019-01-18T03:10:24.927Z,3.90
2019-01-18T03:12:53.349Z,3.70
2019-01-18T03:15:21.818Z,3.70
2019-01-18T03:17:50.189Z,3.60
2019-01-18T03:20:19.888Z,3.70
2019-01-18T03:22:48.271Z,3.80
2019-01-18T03:25:24.803Z,3.80
2019-01-18T03:27:53.192Z,3.60
2019-01-18T03:30:21.737Z,3.60
2019-01-18T03:32:50.492Z,3.50
2019-01-18T03:35:20.900Z,3.40
2019-01-18T03:37:50.668Z,3.30
2019-01-18T03:40:20.128Z,3.20
2019-01-18T03:42:49.047Z,3.10
2019-01-18T03:45:19.164Z,3.10
2019-01-18T03:47:48.218Z,3.10
2019-01-18T03:50:25.208Z,3.10
2019-01-18T03:52:54.103Z,3.10
2019-01-18T03:55:22.584Z,3.10
2019-01-18T03:57:51.335Z,3.00
2019-01-18T04:00:26.442Z,2.80
2019-01-18T04:02:55.131Z,2.80
2019-01-18T04:05:23.713Z,2.80
2019-01-18T04:07:52.339Z,2.70
2019-01-18T04:10:22.028Z,2.70
2019-01-18T04:12:50.847Z,2.80
2019-01-18T04:15:21.183Z,2.80
2019-01-18T04:17:49.864Z,2.80
2019-01-18T04:20:20.026Z,3.00
2019-01-18T04:22:48.783Z,3.00
2019-01-18T04:25:18.983Z,2.90
2019-01-18T04:27:47.503Z,3.00
2019-01-18T04:30:23.453Z,3.00
2019-01-18T04:32:51.836Z,3.00
2019-01-18T04:35:20.361Z,3.00
2019-01-18T04:37:48.901Z,3.00
2019-01-18T04:40:28.302Z,3.10
2019-01-18T04:42:57.080Z,3.20
2019-01-18T04:45:25.468Z,3.30
2019-01-18T04:47:54.422Z,3.20
2019-01-18T04:50:25.153Z,3.20
2019-01-18T04:52:53.917Z,3.20
2019-01-18T04:55:22.417Z,3.20
2019-01-18T04:57:50.927Z,3.10
2019-01-18T05:00:21.467Z,3.10
2019-01-18T05:02:49.849Z,3.10
2019-01-18T05:05:18.453Z,3.10
2019-01-18T05:07:47.005Z,3.20
2019-01-18T05:10:17.925Z,3.20
2019-01-18T05:12:46.711Z,3.10
2019-01-18T05:15:20.727Z,2.90
2019-01-18T05:17:49.467Z,3.00
2019-01-18T05:20:18.289Z,3.00
2019-01-18T05:22:46.796Z,3.00
2019-01-18T05:25:15.514Z,3.00
2019-01-18T05:27:44.283Z,2.90
2019-01-18T05:30:21.084Z,2.90
2019-01-18T05:32:49.705Z,2.80
2019-01-18T05:35:18.163Z,2.80
2019-01-18T05:37:47.167Z,2.70
2019-01-18T05:40:17.912Z,2.70
2019-01-18T05:42:47.352Z,2.60
2019-01-18T05:45:18.078Z,2.60
2019-01-18T05:47:46.912Z,2.40
2019-01-18T05:50:20.723Z,2.40
2019-01-18T05:52:49.250Z,2.20
2019-01-18T05:55:17.803Z,2.00
2019-01-18T05:57:46.556Z,1.80
2019-01-18T06:00:39.465Z,1.80
2019-01-18T06:03:09.482Z,1.80
2019-01-18T06:05:40.071Z,1.80
2019-01-18T06:08:08.590Z,1.80
2019-01-18T06:10:36.975Z,1.70
2019-01-18T06:13:05.724Z,1.70
2019-01-18T06:15:34.164Z,1.70
2019-01-18T06:18:02.755Z,1.70
2019-01-18T06:20:31.143Z,1.70
2019-01-18T06:22:59.960Z,1.60
2019-01-18T06:25:28.484Z,1.60
2019-01-18T06:27:56.876Z,1.60
2019-01-18T06:30:25.295Z,1.60
2019-01-18T06:32:53.876Z,1.60
2019-01-18T06:35:22.355Z,1.50
2019-01-18T06:37:50.775Z,1.50
2019-01-18T06:40:22.582Z,1.60
2019-01-18T06:42:51.070Z,1.60
2019-01-18T06:45:26.741Z,1.60
2019-01-18T06:47:55.268Z,1.60
2019-01-18T06:50:24.010Z,1.90
2019-01-18T06:52:52.645Z,1.80
2019-01-18T06:55:21.184Z,1.80
2019-01-18T06:57:50.194Z,1.70
2019-01-18T07:00:30.283Z,1.60
2019-01-18T07:02:58.692Z,1.80
2019-01-18T07:05:27.256Z,2.00
2019-01-18T07:07:55.788Z,2.10
2019-01-18T07:10:25.303Z,2.10
2019-01-18T07:12:53.862Z,1.90
2019-01-18T07:15:22.515Z,1.90
2019-01-18T07:17:51.221Z,1.90
2019-01-18T07:20:20.848Z,2.00
2019-01-18T07:22:49.769Z,2.20
2019-01-18T07:25:23.616Z,2.10
2019-01-18T07:27:53.306Z,2.20
2019-01-18T07:30:27.303Z,2.10
2019-01-18T07:32:55.689Z,2.10
2019-01-18T07:35:24.122Z,2.30
2019-01-18T07:37:52.934Z,2.40
2019-01-18T07:40:21.626Z,2.40
2019-01-18T07:42:53.555Z,2.30
2019-01-18T07:45:27.292Z,2.20
2019-01-18T07:47:57.771Z,2.20
2019-01-18T07:50:26.189Z,2.20
2019-01-18T07:52:54.726Z,2.20
2019-01-18T07:55:23.439Z,2.20
2019-01-18T07:57:52.100Z,2.20
2019-01-18T08:00:26.271Z,2.20
2019-01-18T08:02:55.098Z,2.10
2019-01-18T08:05:25.625Z,2.10
2019-01-18T08:07:54.311Z,2.00
2019-01-18T08:10:24.179Z,1.90
2019-01-18T08:12:52.730Z,1.80
2019-01-18T08:15:26.185Z,1.80
2019-01-18T08:17:55.275Z,1.70
2019-01-18T08:20:30.919Z,1.60
2019-01-18T08:22:59.364Z,1.50
2019-01-18T08:25:28.382Z,1.40
2019-01-18T08:27:56.762Z,1.30
2019-01-18T08:30:27.617Z,1.40
2019-01-18T08:32:56.729Z,1.30
2019-01-18T08:35:27.591Z,1.30
2019-01-18T08:37:56.660Z,1.30
2019-01-18T08:40:34.263Z,1.20
2019-01-18T08:43:02.979Z,1.00
2019-01-18T08:45:34.813Z,1.00
2019-01-18T08:48:03.595Z,1.00
2019-01-18T08:50:33.633Z,1.20
2019-01-18T08:53:02.232Z,1.10
2019-01-18T08:55:32.529Z,1.10
2019-01-18T08:58:00.963Z,1.00
2019-01-18T09:00:31.079Z,1.00
2019-01-18T09:02:59.486Z,0.90
2019-01-18T09:05:29.136Z,1.00
2019-01-18T09:07:57.861Z,0.90
2019-01-18T09:10:31.586Z,1.00
2019-01-18T09:13:00.683Z,0.90
2019-01-18T09:15:29.448Z,1.00
2019-01-18T09:17:58.394Z,1.00
2019-01-18T09:20:28.876Z,0.90
2019-01-18T09:22:57.511Z,0.80
2019-01-18T09:25:26.039Z,0.90
2019-01-18T09:27:54.807Z,0.90
2019-01-18T09:30:33.073Z,0.90
2019-01-18T09:33:02.624Z,0.90
2019-01-18T09:35:32.864Z,1.00
2019-01-18T09:38:03.089Z,1.00
2019-01-18T09:40:34.098Z,1.00
2019-01-18T09:43:02.808Z,1.20
2019-01-18T09:45:31.223Z,1.30
2019-01-18T09:48:02.630Z,1.30
2019-01-18T09:50:32.854Z,1.30
2019-01-18T09:53:04.568Z,1.30
2019-01-18T09:55:34.030Z,1.40
2019-01-18T09:58:04.414Z,1.60
2019-01-18T10:00:35.921Z,1.60
2019-01-18T10:03:04.917Z,1.70
2019-01-18T10:05:33.731Z,1.80
2019-01-18T10:08:02.944Z,1.60
2019-01-18T10:10:31.788Z,1.60
2019-01-18T10:13:00.519Z,1.70
2019-01-18T10:15:32.456Z,1.60
2019-01-18T10:18:01.059Z,1.60
2019-01-18T10:20:29.821Z,1.70
2019-01-18T10:22:58.615Z,1.70
2019-01-18T10:25:27.543Z,1.70
2019-01-18T10:27:58.832Z,1.70
2019-01-18T10:30:31.360Z,1.70
2019-01-18T10:33:00.372Z,1.70
2019-01-18T10:35:29.564Z,1.80
2019-01-18T10:37:58.724Z,1.90
2019-01-18T10:40:27.117Z,2.10
2019-01-18T10:42:55.764Z,2.20
2019-01-18T10:45:25.391Z,2.10
2019-01-18T10:47:53.987Z,2.30
2019-01-18T10:50:24.912Z,2.30
2019-01-18T10:52:54.484Z,2.20
2019-01-18T10:55:24.132Z,2.50
2019-01-18T10:57:53.164Z,2.40
2019-01-18T11:00:24.703Z,2.20
2019-01-18T11:02:53.382Z,2.20
2019-01-18T11:05:22.930Z,2.00
2019-01-18T11:07:52.861Z,1.80
2019-01-18T11:10:22.425Z,1.40
2019-01-18T11:12:51.056Z,1.40
2019-01-18T11:15:25.174Z,1.30
2019-01-18T11:17:53.791Z,1.40
2019-01-18T11:20:28.895Z,1.40
2019-01-18T11:22:59.316Z,1.50
2019-01-18T11:25:31.776Z,1.50
2019-01-18T11:27:57.879Z,1.60
2019-01-18T11:30:26.260Z,1.50
2019-01-18T11:32:55.014Z,1.40
2019-01-18T11:35:23.582Z,1.40
2019-01-18T11:37:52.166Z,1.50
2019-01-18T11:40:22.817Z,1.50
2019-01-18T11:42:51.329Z,1.70
2019-01-18T11:45:19.901Z,1.70
2019-01-18T11:47:48.991Z,1.50
2019-01-18T11:50:28.608Z,3.80
2019-01-18T11:52:57.003Z,4.20
2019-01-18T11:55:26.931Z,2.40
2019-01-18T11:57:56.695Z,2.00
2019-01-18T12:00:29.528Z,1.70
2019-01-18T12:02:57.918Z,2.10
2019-01-18T12:05:26.933Z,2.80
2019-01-18T12:07:56.088Z,6.50
2019-01-18T12:10:30.359Z,10.20
2019-01-18T12:13:03.540Z,14.00
2019-01-18T12:15:34.078Z,12.10
2019-01-18T12:18:03.321Z,10.20
2019-01-18T12:20:34.680Z,7.00
2019-01-18T12:23:04.188Z,4.70
2019-01-18T12:25:32.936Z,3.90
2019-01-18T12:28:01.763Z,3.00
2019-01-18T12:30:32.378Z,2.90
2019-01-18T12:33:03.179Z,2.90
2019-01-18T12:35:31.798Z,3.20
2019-01-18T12:38:00.929Z,3.20
2019-01-18T12:40:30.028Z,2.60
2019-01-18T12:42:58.432Z,2.80
2019-01-18T12:45:38.332Z,2.30
2019-01-18T12:48:07.284Z,2.40
2019-01-18T12:50:36.697Z,2.00
2019-01-18T12:53:05.535Z,2.10
2019-01-18T12:55:34.001Z,1.70
2019-01-18T12:58:04.345Z,1.90
2019-01-18T13:00:33.866Z,1.70
2019-01-18T13:03:03.174Z,1.30
2019-01-18T13:05:38.724Z,1.30
2019-01-18T13:08:08.443Z,1.20
2019-01-18T13:10:37.885Z,1.20
2019-01-18T13:13:06.640Z,1.30
2019-01-18T13:15:41.978Z,1.20
2019-01-18T13:18:10.872Z,1.10
2019-01-18T13:20:40.447Z,1.10
2019-01-18T13:23:11.740Z,1.10
2019-01-18T13:25:41.526Z,1.20
2019-01-18T13:28:10.788Z,1.00
2019-01-18T13:30:42.566Z,1.10
2019-01-18T13:33:13.164Z,0.90
2019-01-18T13:35:44.884Z,0.90
2019-01-18T13:38:14.871Z,1.20
2019-01-18T13:40:52.838Z,1.20
2019-01-18T13:43:36.629Z,1.10
2019-01-18T13:46:05.251Z,1.10
2019-01-18T13:48:34.353Z,1.00
2019-01-18T13:51:03.184Z,1.00
2019-01-18T13:53:32.864Z,1.00
2019-01-18T13:56:03.153Z,1.10
2019-01-18T13:58:32.180Z,1.00
2019-01-18T14:01:00.899Z,1.00
2019-01-18T14:03:30.215Z,1.00
2019-01-18T14:05:58.596Z,1.00
2019-01-18T14:08:27.773Z,1.00
2019-01-18T14:10:56.376Z,1.20
2019-01-18T14:13:25.137Z,1.50
2019-01-18T14:15:55.356Z,1.10
2019-01-18T14:18:24.580Z,0.90
2019-01-18T14:20:57.126Z,0.80
2019-01-18T14:23:26.068Z,0.80
2019-01-18T14:25:54.470Z,0.70
2019-01-18T14:28:23.348Z,0.70
2019-01-18T14:30:52.460Z,0.60
2019-01-18T14:33:23.400Z,0.70
2019-01-18T14:35:52.036Z,0.60
2019-01-18T14:38:25.041Z,0.60
2019-01-18T14:40:50.704Z,0.60
2019-01-18T14:43:19.602Z,0.50
2019-01-18T14:45:48.032Z,0.50
2019-01-18T14:48:16.555Z,0.50
2019-01-18T14:50:45.263Z,0.40
2019-01-18T14:53:14.338Z,0.50
2019-01-18T14:55:42.823Z,0.50
2019-01-18T14:58:11.953Z,0.40
2019-01-18T15:00:41.473Z,0.40
2019-01-18T15:03:11.351Z,0.40
2019-01-18T15:05:42.616Z,0.40
2019-01-18T15:08:12.016Z,0.30
2019-01-18T15:10:41.142Z,0.30
2019-01-18T15:13:15.903Z,0.30
2019-01-18T15:15:50.212Z,0.20
2019-01-18T15:18:18.791Z,0.20
2019-01-18T15:20:50.371Z,0.20
2019-01-18T15:23:19.089Z,0.20
2019-01-18T15:25:50.772Z,0.10
2019-01-18T15:28:20.060Z,0.00
2019-01-18T15:30:49.526Z,0.00
2019-01-18T15:33:18.287Z,0.00
2019-01-18T15:35:47.133Z,-0.10
2019-01-18T15:38:18.894Z,-0.10
2019-01-18T15:40:49.683Z,-0.10
2019-01-18T15:43:19.621Z,0.00
2019-01-18T15:45:52.176Z,0.00
2019-01-18T15:48:25.335Z,-0.20
2019-01-18T15:50:54.081Z,-0.20
2019-01-18T15:53:23.739Z,-0.20
2019-01-18T15:55:52.463Z,-0.40
2019-01-18T15:58:26.248Z,-0.40
2019-01-18T16:00:56.063Z,-0.40
2019-01-18T16:03:24.503Z,-0.50
2019-01-18T16:05:53.154Z,-0.50
2019-01-18T16:08:23.207Z,-0.50
2019-01-18T16:10:52.290Z,-0.40
2019-01-18T16:13:20.963Z,-0.50
2019-01-18T16:15:52.694Z,-0.50
2019-01-18T16:18:23.728Z,-0.40
2019-01-18T16:20:52.364Z,-0.50
2019-01-18T16:23:21.379Z,-0.60
2019-01-18T16:25:49.972Z,-0.60
2019-01-18T16:28:18.689Z,-0.60
2019-01-18T16:30:47.569Z,-0.50
2019-01-18T16:33:23.154Z,-0.50
2019-01-18T16:35:46.357Z,-0.70
2019-01-18T16:38:14.784Z,-0.70
2019-01-18T16:40:43.250Z,-0.80
2019-01-18T16:43:23.569Z,-0.80
2019-01-18T16:45:52.034Z,-0.70
2019-01-18T16:48:20.614Z,-0.90
2019-01-18T16:50:49.539Z,-0.90
2019-01-18T16:53:17.941Z,-0.90
2019-01-18T16:55:46.498Z,-0.90
2019-01-18T16:58:15.083Z,-1.00
2019-01-18T17:00:52.493Z,-0.90
2019-01-18T17:03:21.501Z,-1.00
2019-01-18T17:05:50.379Z,-1.00
2019-01-18T17:08:18.858Z,-1.00
2019-01-18T17:10:49.457Z,-1.00
2019-01-18T17:13:18.182Z,-1.00
2019-01-18T17:15:46.879Z,-1.00
2019-01-18T17:18:15.742Z,-0.90
2019-01-18T17:20:47.757Z,-1.00
2019-01-18T17:23:16.356Z,-1.10
2019-01-18T17:25:44.931Z,-1.20
2019-01-18T17:28:13.406Z,-1.20
2019-01-18T17:30:41.915Z,-1.10
2019-01-18T17:33:10.343Z,-1.20
2019-01-18T17:35:45.258Z,-1.10
2019-01-18T17:38:22.792Z,-1.00
2019-01-18T17:41:00.308Z,-1.10
2019-01-18T17:44:02.245Z,-1.10
2019-01-18T17:46:45.902Z,-1.00
2019-01-18T17:49:43.099Z,-1.10
2019-01-18T17:52:33.242Z,-1.10
2019-01-18T17:55:16.800Z,-1.10
2019-01-18T17:58:08.184Z,-1.00
2019-01-18T18:00:49.146Z,-1.00
2019-01-18T18:03:26.629Z,-1.10
2019-01-18T18:06:06.920Z,-1.10
2019-01-18T18:08:47.480Z,-1.10
2019-01-18T18:11:19.293Z,-1.00
2019-01-18T18:13:58.490Z,-1.00
2019-01-18T18:16:46.933Z,-1.00
2019-01-18T18:19:18.796Z,-1.10
2019-01-18T18:22:04.942Z,-1.00
2019-01-18T18:24:45.411Z,-1.10
2019-01-18T18:27:38.631Z,-1.20
2019-01-18T18:30:19.276Z,-1.20
2019-01-18T18:33:08.625Z,-1.20
2019-01-18T18:35:52.584Z,-1.20
2019-01-18T18:38:45.388Z,-1.10
2019-01-18T18:41:42.705Z,-1.20
2019-01-18T18:44:26.518Z,-1.20
2019-01-18T18:46:58.580Z,-1.10
2019-01-18T18:49:32.941Z,-1.20
2019-01-18T18:52:19.901Z,-1.10
2019-01-18T18:55:17.245Z,-1.20
2019-01-18T18:58:22.302Z,-1.40
2019-01-18T19:01:00.298Z,-1.30
2019-01-18T19:03:44.221Z,-1.40
2019-01-18T19:06:21.835Z,-1.40
2019-01-18T19:08:53.509Z,-1.30
2019-01-18T19:11:25.710Z,-1.30
2019-01-18T19:14:17.624Z,-1.30
2019-01-18T19:17:08.505Z,-1.30
2019-01-18T19:19:52.337Z,-1.30
2019-01-18T19:22:36.107Z,-1.40
2019-01-18T19:25:15.992Z,-1.40
2019-01-18T19:28:03.069Z,-1.40
2019-01-18T19:30:44.031Z,-1.40
2019-01-18T19:33:21.839Z,-1.30
2019-01-18T19:36:23.625Z,-1.30
2019-01-18T19:39:06.311Z,-1.40
2019-01-18T19:41:43.869Z,-1.50
2019-01-18T19:44:27.585Z,-1.50
2019-01-18T19:47:02.276Z,-1.50
2019-01-18T19:50:02.900Z,-1.50
2019-01-18T19:52:55.612Z,-1.50
2019-01-18T19:55:54.809Z,-1.60
2019-01-18T19:58:48.885Z,-1.70
2019-01-18T20:01:38.663Z,-1.80
2019-01-18T20:04:34.748Z,-1.80
2019-01-18T20:07:18.757Z,-1.80
2019-01-18T20:09:53.065Z,-1.80
2019-01-18T20:12:53.624Z,-1.80
2019-01-18T20:15:34.446Z,-1.80
2019-01-18T20:18:36.025Z,-1.80
2019-01-18T20:21:25.915Z,-1.80
2019-01-18T20:24:00.255Z,-1.90
2019-01-18T20:26:38.419Z,-1.90
2019-01-18T20:29:35.550Z,-1.90
2019-01-18T20:32:22.552Z,-1.90
2019-01-18T20:35:15.368Z,-1.90
2019-01-18T20:37:50.186Z,-2.00
2019-01-18T20:40:34.305Z,-2.00
2019-01-18T20:43:23.718Z,-1.90
2019-01-18T20:46:22.543Z,-1.90
2019-01-18T20:49:24.260Z,-1.90
2019-01-18T20:52:11.344Z,-1.90
2019-01-18T20:54:48.521Z,-1.80
2019-01-18T20:57:26.640Z,-1.80
2019-01-18T21:00:30.064Z,-1.90
2019-01-18T21:03:04.313Z,-1.90
2019-01-18T21:05:51.456Z,-1.80
2019-01-18T21:08:23.447Z,-1.80
2019-01-18T21:11:01.108Z,-1.90
2019-01-18T21:13:38.751Z,-1.90
2019-01-18T21:16:16.511Z,-1.90
2019-01-18T21:18:55.280Z,-2.00
2019-01-18T21:21:46.079Z,-1.90
2019-01-18T21:24:46.929Z,-1.90
2019-01-18T21:27:40.114Z,-1.90
2019-01-18T21:30:14.535Z,-1.80
2019-01-18T21:32:58.634Z,-1.90
2019-01-18T21:35:39.820Z,-1.90
2019-01-18T21:38:23.898Z,-1.80
2019-01-18T21:40:55.908Z,-1.80
2019-01-18T21:43:46.236Z,-1.90
2019-01-18T21:46:50.500Z,-1.90
2019-01-18T21:49:34.231Z,-1.90
2019-01-18T21:52:21.268Z,-1.90
2019-01-18T21:55:04.875Z,-1.80
2019-01-18T21:57:39.232Z,-1.90
2019-01-18T22:00:34.710Z,-1.80
2019-01-18T22:03:06.637Z,-1.80
2019-01-18T22:05:56.336Z,-1.90
2019-01-18T22:08:43.029Z,-1.90
2019-01-18T22:11:20.642Z,-1.90
2019-01-18T22:13:52.487Z,-1.90
2019-01-18T22:16:48.674Z,-1.90
2019-01-18T22:19:32.161Z,-2.10
2019-01-18T22:22:19.858Z,-2.00
2019-01-18T22:25:22.338Z,-2.10
2019-01-18T22:28:02.898Z,-2.00
2019-01-18T22:30:43.781Z,-2.00
2019-01-18T22:36:45.523Z,-2.00
2019-01-18T22:39:36.263Z,-2.10
2019-01-18T22:42:31.799Z,-2.10
2019-01-18T22:45:24.427Z,-2.00
2019-01-18T22:47:58.785Z,-2.00
2019-01-18T22:50:49.764Z,-1.90
2019-01-18T22:53:46.768Z,-2.00
2019-01-18T22:56:35.190Z,-2.00
2019-01-18T22:59:27.315Z,-2.00
2019-01-18T23:02:15.629Z,-2.00
2019-01-18T23:04:56.106Z,-2.00
2019-01-18T23:07:30.702Z,-2.00
2019-01-18T23:10:17.598Z,-2.00
2019-01-18T23:12:52.216Z,-1.90
2019-01-18T23:15:39.167Z,-2.00
2019-01-18T23:18:23.081Z,-2.10
2019-01-18T23:21:17.204Z,-2.20
2019-01-18T23:24:02.193Z,-2.10
2019-01-18T23:26:55.249Z,-2.00
2019-01-18T23:29:33.157Z,-2.10
2019-01-18T23:32:10.413Z,-2.20
2019-01-18T23:34:50.732Z,-2.10
2019-01-18T23:37:31.851Z,-2.10
2019-01-18T23:40:18.732Z,-2.10
2019-01-18T23:43:23.831Z,-2.20
2019-01-18T23:46:04.031Z,-2.20
2019-01-18T23:48:50.971Z,-2.20
2019-01-18T23:51:55.787Z,-2.10
2019-01-18T23:54:56.313Z,-2.10
2019-01-18T23:57:44.227Z,-2.20
